Time;durP1;ratioP1;P1;durP2;ratioP2;P2;SDS_P1;SDS_P2;PMS_P1;PMS_P2;Temp;Humidity;BMP_temperature;BMP_pressure;BME280_temperature;BME280_humidity;BME280_pressure;Samples;Min_cycle;Max_cycle;Signal;HPM_P1;HPM_P2
2023/02/21 02:16:01;;;;;;;29.42;12.82;;;9.70;99.90;;;;;;4824312;29;20054;-90
2023/02/21 02:18:45;;;;;;;29.80;12.82;;;9.70;99.90;;;;;;4840876;29;20061;-90
2023/02/21 02:21:30;;;;;;;27.65;13.35;;;9.70;99.90;;;;;;4841500;29;20042;-89
2023/02/21 02:24:21;;;;;;;26.63;12.57;;;9.70;99.90;;;;;;4840030;29;20057;-89
2023/02/21 02:27:24;;;;;;;28.15;12.60;;;9.70;99.90;;;;;;4842021;29;20582;-89
2023/02/21 02:30:21;;;;;;;28.77;13.45;;;9.70;99.90;;;;;;4839522;29;20084;-89
2023/02/21 02:33:11;;;;;;;28.27;12.80;;;9.70;99.90;;;;;;4840967;29;20045;-90
2023/02/21 02:35:48;;;;;;;28.05;13.38;;;9.70;99.90;;;;;;4843332;29;20145;-89
2023/02/21 02:38:33;;;;;;;28.95;12.85;;;9.70;99.90;;;;;;4843557;29;20050;-89
2023/02/21 02:41:05;;;;;;;32.35;13.45;;;9.70;99.90;;;;;;4843906;29;20056;-89
2023/02/21 02:43:38;;;;;;;24.70;12.40;;;9.70;99.90;;;;;;4844689;29;20054;-91
2023/02/21 02:46:27;;;;;;;28.27;12.60;;;9.80;99.90;;;;;;4844771;29;20106;-89
2023/02/21 02:48:57;;;;;;;36.50;13.50;;;9.80;99.90;;;;;;4845128;29;20050;-90
2023/02/21 02:51:24;;;;;;;30.55;13.25;;;9.70;99.90;;;;;;4843399;29;20042;-90
2023/02/21 02:53:50;;;;;;;28.10;13.68;;;9.70;99.90;;;;;;4844911;29;20058;-89
2023/02/21 02:56:16;;;;;;;25.88;13.77;;;9.80;99.90;;;;;;4842666;29;20069;-89
2023/02/21 02:58:48;;;;;;;32.28;13.10;;;9.80;99.90;;;;;;4844147;29;20061;-88
2023/02/21 03:01:32;;;;;;;27.75;13.63;;;9.80;99.90;;;;;;4844681;29;20050;-89
2023/02/21 03:04:16;;;;;;;28.70;14.02;;;9.70;99.90;;;;;;4843065;29;20153;-88
2023/02/21 03:06:56;;;;;;;30.90;14.15;;;9.70;99.90;;;;;;4844296;29;20097;-90
2023/02/21 03:09:40;;;;;;;28.00;13.55;;;9.70;99.90;;;;;;4843976;29;20046;-89
2023/02/21 03:12:19;;;;;;;;;;;9.70;99.90;;;;;;4842771;29;20050;-88
2023/02/21 03:14:56;;;;;;;31.17;14.25;;;9.70;99.90;;;;;;4844803;29;19925;-89
2023/02/21 03:17:23;;;;;;;31.30;14.27;;;9.70;99.90;;;;;;4844059;29;20078;-90
2023/02/21 03:19:52;;;;;;;30.27;14.15;;;9.70;99.90;;;;;;4843720;29;20406;-90
2023/02/21 03:22:22;;;;;;;38.88;14.25;;;9.70;99.90;;;;;;4828147;29;20119;-90
2023/02/21 03:24:49;;;;;;;31.08;14.00;;;9.70;99.90;;;;;;4809980;29;20051;-89
2023/02/21 03:27:17;;;;;;;35.15;15.82;;;9.70;99.90;;;;;;4839146;29;20053;-89
2023/02/21 03:29:43;;;;;;;34.47;15.00;;;9.70;99.90;;;;;;4844025;29;20040;-89
2023/02/21 03:34:43;;;;;;;29.17;14.50;;;9.70;99.90;;;;;;4842685;29;20065;-89
2023/02/21 03:37:18;;;;;;;30.77;16.13;;;9.70;99.90;;;;;;4842656;29;20058;-89
2023/02/21 03:39:44;;;;;;;29.67;14.93;;;9.70;99.90;;;;;;4842690;29;20053;-90
2023/02/21 03:42:10;;;;;;;30.15;14.65;;;9.70;99.90;;;;;;4841503;29;20046;-89
2023/02/21 03:44:35;;;;;;;38.03;16.35;;;9.60;99.90;;;;;;4842486;29;20144;-89
2023/02/21 03:47:01;;;;;;;28.17;15.07;;;9.70;99.90;;;;;;4841575;29;20056;-87
2023/02/21 03:49:26;;;;;;;31.42;15.20;;;9.70;99.90;;;;;;4842252;29;20052;-89
2023/02/21 03:51:52;;;;;;;33.47;15.20;;;9.70;99.90;;;;;;4843428;29;20095;-89
2023/02/21 03:54:18;;;;;;;30.92;15.75;;;9.70;99.90;;;;;;4841328;29;20073;-90
2023/02/21 03:56:43;;;;;;;30.45;14.77;;;9.60;99.90;;;;;;4843257;29;20038;-89
2023/02/21 03:59:09;;;;;;;29.02;14.57;;;9.60;99.90;;;;;;4842450;29;20054;-90
2023/02/21 04:01:35;;;;;;;30.13;15.55;;;9.60;99.90;;;;;;4840948;29;20479;-89
2023/02/21 04:04:00;;;;;;;29.00;15.55;;;9.70;99.90;;;;;;4843889;29;20069;-89
2023/02/21 04:06:26;;;;;;;27.95;15.00;;;9.70;99.90;;;;;;4843468;29;20514;-89
2023/02/21 04:08:51;;;;;;;28.70;16.45;;;9.70;99.90;;;;;;4842091;29;20050;-89
2023/02/21 04:11:20;;;;;;;33.00;16.25;;;9.70;99.90;;;;;;4843217;29;20468;-88
2023/02/21 04:13:45;;;;;;;32.00;16.80;;;9.70;99.90;;;;;;4841776;29;20529;-90
2023/02/21 04:16:11;;;;;;;28.30;15.77;;;9.70;99.90;;;;;;4841157;29;20042;-90
2023/02/21 04:18:37;;;;;;;29.65;16.30;;;9.70;99.90;;;;;;4842106;29;20057;-89
2023/02/21 04:21:02;;;;;;;31.75;17.35;;;9.70;99.90;;;;;;4842934;29;20102;-90
2023/02/21 04:23:28;;;;;;;29.42;16.08;;;9.60;99.90;;;;;;4842002;29;20046;-89
2023/02/21 04:25:54;;;;;;;31.75;17.17;;;9.70;99.90;;;;;;4841790;29;20054;-90
2023/02/21 04:28:19;;;;;;;29.88;17.40;;;9.70;99.90;;;;;;4841400;29;20114;-89
2023/02/21 04:30:45;;;;;;;28.67;17.65;;;9.70;99.90;;;;;;4841637;29;20046;-89
2023/02/21 04:33:11;;;;;;;37.95;18.73;;;9.60;99.90;;;;;;4842632;29;20125;-91
2023/02/21 04:35:36;;;;;;;31.33;18.05;;;9.70;99.90;;;;;;4840922;29;20140;-89
2023/02/21 04:38:02;;;;;;;31.70;18.20;;;9.60;99.90;;;;;;4840060;29;20078;-88
2023/02/21 04:40:28;;;;;;;33.60;17.50;;;9.70;99.90;;;;;;4842131;29;20080;-89
2023/02/21 04:42:53;;;;;;;28.92;17.02;;;9.70;99.90;;;;;;4839155;29;20053;-88
2023/02/21 04:45:19;;;;;;;34.13;17.77;;;9.70;99.90;;;;;;4853215;29;20073;-88
2023/02/21 04:47:46;;;;;;;30.20;17.33;;;9.70;99.90;;;;;;4841107;29;20077;-88
2023/02/21 04:50:12;;;;;;;33.53;17.58;;;9.70;99.90;;;;;;4841843;29;20149;-88
2023/02/21 04:52:40;;;;;;;33.58;18.02;;;9.70;99.90;;;;;;4840619;29;20495;-89
2023/02/21 04:55:07;;;;;;;29.85;18.05;;;9.70;99.90;;;;;;4840886;29;20049;-87
2023/02/21 04:57:33;;;;;;;29.10;18.02;;;9.70;99.90;;;;;;4839949;29;20046;-88
2023/02/21 04:59:59;;;;;;;31.90;18.83;;;9.60;99.90;;;;;;4840818;29;20129;-87
2023/02/21 05:02:26;;;;;;;33.03;18.65;;;9.70;99.90;;;;;;4840020;29;20046;-89
2023/02/21 05:04:51;;;;;;;32.08;17.98;;;9.70;99.90;;;;;;4840822;29;20053;-88
2023/02/21 05:07:19;;;;;;;30.33;19.00;;;9.70;99.90;;;;;;4841384;29;20394;-88
2023/02/21 05:09:45;;;;;;;28.13;18.10;;;9.70;99.90;;;;;;4841831;29;20061;-88
2023/02/21 05:12:11;;;;;;;29.90;18.38;;;9.70;99.90;;;;;;4840072;29;20057;-89
2023/02/21 05:14:38;;;;;;;31.70;18.10;;;9.70;99.90;;;;;;4842696;29;20054;-89
2023/02/21 05:17:04;;;;;;;32.58;18.85;;;9.60;99.90;;;;;;4838311;29;20050;-89
2023/02/21 05:19:30;;;;;;;32.42;18.80;;;9.60;99.90;;;;;;4839502;29;20054;-89
2023/02/21 05:21:57;;;;;;;35.00;20.02;;;9.70;99.90;;;;;;4841968;29;20072;-88
2023/02/21 05:24:23;;;;;;;38.38;19.92;;;9.70;99.90;;;;;;4841656;29;20050;-89
2023/02/21 05:26:49;;;;;;;33.95;19.55;;;9.70;99.90;;;;;;4840461;29;20053;-88
2023/02/21 05:29:15;;;;;;;34.88;19.58;;;9.70;99.90;;;;;;4840159;29;20061;-89
2023/02/21 05:31:41;;;;;;;30.08;19.20;;;9.70;99.90;;;;;;4839915;29;20049;-88
2023/02/21 05:34:06;;;;;;;31.00;19.52;;;9.70;99.90;;;;;;4840921;29;20057;-89
2023/02/21 05:36:32;;;;;;;32.50;19.50;;;9.70;99.90;;;;;;4801271;29;1183820;-89
2023/02/21 05:38:58;;;;;;;34.90;19.42;;;9.70;99.90;;;;;;4841530;29;20459;-89
2023/02/21 05:41:24;;;;;;;34.25;18.48;;;9.60;99.90;;;;;;4840190;29;20134;-89
2023/02/21 05:43:50;;;;;;;30.52;19.20;;;9.60;99.90;;;;;;4842348;29;20095;-88
2023/02/21 05:46:34;;;;;;;37.33;19.98;;;9.60;99.90;;;;;;4841077;29;20057;-88
2023/02/21 05:49:03;;;;;;;33.50;19.55;;;9.60;99.90;;;;;;4840924;29;20046;-89
2023/02/21 05:51:37;;;;;;;31.10;18.98;;;9.60;99.90;;;;;;4840926;29;20052;-89
2023/02/21 05:54:04;;;;;;;30.65;19.20;;;9.60;99.90;;;;;;4840129;29;20098;-88
2023/02/21 05:56:30;;;;;;;31.83;18.02;;;9.60;99.90;;;;;;4835789;29;20125;-89
2023/02/21 05:58:55;;;;;;;31.65;18.83;;;9.60;99.90;;;;;;4836453;29;20475;-89
2023/02/21 06:01:21;;;;;;;30.60;18.17;;;9.60;99.90;;;;;;4839439;29;20053;-89
2023/02/21 06:03:47;;;;;;;37.65;18.63;;;9.60;99.90;;;;;;4840683;29;20388;-88
2023/02/21 06:06:15;;;;;;;32.92;18.67;;;9.60;99.90;;;;;;4839604;29;20046;-88
2023/02/21 06:08:43;;;;;;;31.73;19.33;;;9.60;99.90;;;;;;4831212;29;20133;-89
2023/02/21 06:11:09;;;;;;;31.10;19.27;;;9.70;99.90;;;;;;4834602;29;20073;-89
2023/02/21 06:13:35;;;;;;;33.45;18.92;;;9.60;99.90;;;;;;4840690;29;20073;-89
2023/02/21 06:16:01;;;;;;;30.80;19.88;;;9.60;99.90;;;;;;4842726;29;20081;-89
2023/02/21 06:18:26;;;;;;;28.55;18.50;;;9.60;99.90;;;;;;4834769;29;20050;-89
2023/02/21 06:20:52;;;;;;;29.38;18.92;;;9.60;99.90;;;;;;4842853;29;20046;-89
2023/02/21 06:23:17;;;;;;;30.08;19.40;;;9.60;99.90;;;;;;4842771;29;20049;-89
2023/02/21 06:25:43;;;;;;;33.10;19.45;;;9.70;99.90;;;;;;4844750;29;20056;-89
2023/02/21 06:28:09;;;;;;;32.63;19.40;;;9.60;99.90;;;;;;4843749;29;20069;-89
2023/02/21 06:30:34;;;;;;;33.90;19.58;;;9.60;99.90;;;;;;4843241;29;20093;-89
2023/02/21 06:33:00;;;;;;;31.02;20.33;;;9.60;99.90;;;;;;4840836;29;20109;-87
2023/02/21 06:35:27;;;;;;;31.05;19.95;;;9.60;99.90;;;;;;4843064;29;20057;-88
2023/02/21 06:37:52;;;;;;;35.15;20.83;;;9.60;99.90;;;;;;4843925;29;20054;-87
2023/02/21 06:40:18;;;;;;;32.95;19.88;;;9.60;99.90;;;;;;4825026;29;20057;-88
2023/02/21 06:42:47;;;;;;;29.30;18.95;;;9.60;99.90;;;;;;4825318;29;20408;-90
2023/02/21 06:45:15;;;;;;;28.63;19.90;;;9.60;99.90;;;;;;4821926;29;20065;-91
2023/02/21 06:47:41;;;;;;;34.67;19.98;;;9.60;99.90;;;;;;4835888;29;20566;-87
2023/02/21 06:50:07;;;;;;;30.48;19.75;;;9.60;99.90;;;;;;4830533;29;20125;-86
2023/02/21 06:52:32;;;;;;;33.45;20.50;;;9.60;99.90;;;;;;4842716;29;20455;-89
2023/02/21 06:54:58;;;;;;;31.30;20.17;;;9.60;99.90;;;;;;4836874;29;20077;-90
2023/02/21 06:57:23;;;;;;;37.10;21.10;;;9.60;99.90;;;;;;4830869;29;20064;-90
2023/02/21 06:59:49;;;;;;;33.08;21.70;;;9.60;99.90;;;;;;4836589;29;20117;-90
2023/02/21 07:02:17;;;;;;;37.72;20.75;;;9.60;99.90;;;;;;4839742;29;20042;-89
2023/02/21 07:04:44;;;;;;;34.20;20.80;;;9.60;99.90;;;;;;4843476;29;20128;-90
2023/02/21 07:07:10;;;;;;;34.67;21.27;;;9.60;99.90;;;;;;4845736;29;20456;-87
2023/02/21 07:09:35;;;;;;;35.78;21.00;;;9.60;99.90;;;;;;4839662;29;20078;-89
2023/02/21 07:12:02;;;;;;;32.55;20.83;;;9.60;99.90;;;;;;4842508;29;20110;-88
2023/02/21 07:14:28;;;;;;;33.38;20.40;;;9.60;99.90;;;;;;4842137;29;20116;-88
2023/02/21 07:16:54;;;;;;;31.17;21.33;;;9.50;99.90;;;;;;4843120;29;20132;-90
2023/02/21 07:19:19;;;;;;;29.73;20.23;;;9.60;99.90;;;;;;4840886;29;20500;-89
2023/02/21 07:21:45;;;;;;;35.17;20.92;;;9.60;99.90;;;;;;4841765;29;20045;-90
2023/02/21 07:24:11;;;;;;;33.53;21.40;;;9.60;99.90;;;;;;4841322;29;20133;-90
2023/02/21 07:26:36;;;;;;;31.15;21.40;;;9.60;99.90;;;;;;4840600;29;20042;-88
2023/02/21 07:29:03;;;;;;;38.88;22.52;;;9.60;99.90;;;;;;4831423;29;20041;-91
2023/02/21 07:31:28;;;;;;;35.35;21.90;;;9.60;99.90;;;;;;4843195;29;20045;-90
2023/02/21 07:33:54;;;;;;;38.55;22.77;;;9.60;99.90;;;;;;4826758;29;20042;-89
2023/02/21 07:36:21;;;;;;;36.40;22.27;;;9.60;99.90;;;;;;4836393;29;20058;-91
2023/02/21 07:38:47;;;;;;;35.80;22.17;;;9.60;99.90;;;;;;4842245;29;20050;-90
2023/02/21 07:41:14;;;;;;;32.80;22.00;;;9.60;99.90;;;;;;4843156;29;20045;-90
2023/02/21 07:43:40;;;;;;;34.70;21.40;;;9.60;99.90;;;;;;4830213;29;20137;-91
2023/02/21 07:46:13;;;;;;;34.13;21.35;;;9.60;99.90;;;;;;4835452;29;20073;-88
2023/02/21 07:48:39;;;;;;;35.17;22.83;;;9.60;99.90;;;;;;4824591;29;20054;-90
2023/02/21 07:51:09;;;;;;;36.50;22.55;;;9.60;99.90;;;;;;4833416;29;20046;-90
2023/02/21 07:53:35;;;;;;;32.42;22.48;;;9.60;99.90;;;;;;4842188;29;21394;-90
2023/02/21 07:56:10;;;;;;;36.03;22.02;;;9.60;99.90;;;;;;4841944;29;20046;-91
2023/02/21 07:58:36;;;;;;;33.72;22.67;;;9.60;99.90;;;;;;4839599;29;20049;-89
2023/02/21 08:01:03;;;;;;;37.55;22.67;;;9.60;99.90;;;;;;4829911;29;20046;-88
2023/02/21 08:03:30;;;;;;;38.10;22.48;;;9.60;99.90;;;;;;4830952;29;20090;-89
2023/02/21 08:06:00;;;;;;;33.05;23.02;;;9.60;99.90;;;;;;4843299;29;20046;-90
2023/02/21 08:08:25;;;;;;;33.67;22.60;;;9.60;99.90;;;;;;4833616;29;20050;-90
2023/02/21 08:10:54;;;;;;;33.55;22.45;;;9.70;99.90;;;;;;4842488;29;20046;-89
2023/02/21 08:13:20;;;;;;;37.65;22.27;;;9.60;99.90;;;;;;4840151;29;20402;-89
2023/02/21 08:15:45;;;;;;;33.83;22.55;;;9.70;99.90;;;;;;4841954;29;20034;-89
2023/02/21 08:18:22;;;;;;;34.42;22.95;;;9.70;99.90;;;;;;4835025;29;20054;-90
2023/02/21 08:20:50;;;;;;;34.95;22.77;;;9.70;99.90;;;;;;4840934;29;20165;-89
2023/02/21 08:23:17;;;;;;;35.13;22.48;;;9.70;99.90;;;;;;4833163;29;20410;-88
2023/02/21 08:25:45;;;;;;;32.53;22.45;;;9.70;99.90;;;;;;4839221;29;20054;-89
2023/02/21 08:28:11;;;;;;;36.10;23.13;;;9.70;99.90;;;;;;4840113;29;20129;-90
2023/02/21 08:30:37;;;;;;;41.55;24.10;;;9.70;99.90;;;;;;4841907;29;20050;-90
2023/02/21 08:33:03;;;;;;;33.78;22.30;;;9.70;99.90;;;;;;4834570;29;20057;-90
2023/02/21 08:35:29;;;;;;;31.33;22.20;;;9.70;99.90;;;;;;4832627;29;20069;-89
2023/02/21 08:38:01;;;;;;;35.47;22.75;;;9.70;99.90;;;;;;4839711;29;20408;-90
2023/02/21 08:40:30;;;;;;;29.47;21.43;;;9.70;99.90;;;;;;4835753;29;20038;-90
2023/02/21 08:42:58;;;;;;;32.83;22.00;;;9.70;99.90;;;;;;4840517;29;20050;-89
2023/02/21 08:45:28;;;;;;;33.58;22.40;;;9.70;99.90;;;;;;4840850;29;20073;-90
2023/02/21 08:47:54;;;;;;;32.05;21.42;;;9.80;99.90;;;;;;4836394;29;20502;-89
2023/02/21 08:50:22;;;;;;;31.40;21.02;;;9.70;99.90;;;;;;4837145;29;20448;-89
2023/02/21 08:52:49;;;;;;;33.40;21.40;;;9.80;99.90;;;;;;4833339;29;20083;-89
2023/02/21 08:55:16;;;;;;;30.63;20.95;;;9.80;99.90;;;;;;4830520;29;20395;-92
2023/02/21 08:57:41;;;;;;;33.58;21.60;;;9.70;99.90;;;;;;4828344;29;20062;-89
2023/02/21 09:00:09;;;;;;;29.55;21.08;;;9.80;99.90;;;;;;4837659;29;20110;-91
2023/02/21 09:02:38;;;;;;;36.03;21.90;;;9.80;99.90;;;;;;4836133;29;20136;-90
2023/02/21 09:05:08;;;;;;;28.23;21.67;;;9.80;99.90;;;;;;4840153;29;20406;-91
2023/02/21 09:07:33;;;;;;;36.03;22.15;;;9.80;99.90;;;;;;4839637;29;20043;-87
2023/02/21 09:10:09;;;;;;;29.35;21.55;;;9.80;99.90;;;;;;4829003;29;20101;-90
2023/02/21 09:12:36;;;;;;;29.65;21.08;;;9.80;99.90;;;;;;4839429;29;20057;-89
2023/02/21 09:15:05;;;;;;;31.67;21.77;;;9.90;99.90;;;;;;4829929;29;20053;-91
2023/02/21 09:17:57;;;;;;;29.75;21.77;;;9.90;99.90;;;;;;4835874;29;20053;-89
2023/02/21 09:20:26;;;;;;;28.58;20.95;;;9.90;99.90;;;;;;4835334;29;20053;-89
2023/02/21 09:22:57;;;;;;;36.47;22.83;;;9.90;99.90;;;;;;4841591;29;20042;-86
2023/02/21 09:25:29;;;;;;;34.30;21.73;;;9.90;99.90;;;;;;4828890;29;20133;-86
2023/02/21 09:27:57;;;;;;;34.60;21.80;;;9.90;99.90;;;;;;4834914;29;20046;-87
2023/02/21 09:30:25;;;;;;;31.90;22.10;;;9.90;99.90;;;;;;4841576;29;20056;-87
2023/02/21 09:32:51;;;;;;;31.58;22.70;;;9.90;99.90;;;;;;4833205;29;20101;-87
2023/02/21 09:35:17;;;;;;;32.75;21.63;;;9.90;99.90;;;;;;4825457;29;20486;-87
2023/02/21 09:37:44;;;;;;;31.38;21.00;;;9.90;99.90;;;;;;4842196;29;20050;-87
2023/02/21 09:40:38;;;;;;;35.88;22.13;;;10.00;99.90;;;;;;4839389;29;20525;-87
2023/02/21 09:43:10;;;;;;;30.35;20.85;;;10.00;99.90;;;;;;4817731;29;20050;-89
2023/02/21 09:45:37;;;;;;;31.95;22.08;;;10.00;99.90;;;;;;4839640;29;20042;-90
2023/02/21 09:48:16;;;;;;;28.88;21.83;;;10.00;99.90;;;;;;4844622;29;20102;-90
2023/02/21 09:50:51;;;;;;;29.65;21.13;;;10.00;99.90;;;;;;4833280;29;20421;-90
2023/02/21 09:53:31;;;;;;;35.97;21.92;;;10.00;99.90;;;;;;4842745;29;20122;-90
2023/02/21 09:56:03;;;;;;;31.08;21.50;;;10.00;99.90;;;;;;4834307;29;20466;-90
2023/02/21 09:58:29;;;;;;;33.72;21.17;;;10.00;99.90;;;;;;4837356;29;20061;-88
2023/02/21 10:01:01;;;;;;;30.55;21.20;;;10.00;99.90;;;;;;4840983;29;20504;-88
2023/02/21 10:04:05;;;;;;;30.02;21.23;;;10.00;99.90;;;;;;4843946;29;20050;-88
2023/02/21 10:10:00;;;;;;;31.90;21.77;;;10.00;99.90;;;;;;5020891;24;20251;-92
2023/02/21 10:15:59;;;;;;;33.75;22.75;;;10.10;99.90;;;;;;4844227;29;20093;-93
2023/02/21 10:19:05;;;;;;;32.65;21.88;;;10.10;99.90;;;;;;4847216;29;20057;-91
2023/02/21 10:21:38;;;;;;;31.15;21.50;;;10.10;99.90;;;;;;4856805;29;20045;-95
2023/02/21 10:24:12;;;;;;;30.52;21.95;;;10.10;99.90;;;;;;4868470;29;20046;-93
2023/02/21 10:26:41;;;;;;;29.08;21.70;;;10.10;99.90;;;;;;4865929;29;20459;-91
2023/02/21 10:29:20;;;;;;;33.35;21.92;;;10.10;99.90;;;;;;4859351;29;20050;-94
2023/02/21 10:31:47;;;;;;;29.98;21.58;;;10.20;99.90;;;;;;4848472;29;20045;-91
2023/02/21 10:34:27;;;;;;;33.55;23.98;;;10.20;99.90;;;;;;4859782;29;20049;-90
2023/02/21 10:37:03;;;;;;;33.30;22.30;;;10.20;99.90;;;;;;4855103;29;20056;-89
2023/02/21 10:39:48;;;;;;;32.20;21.35;;;10.20;99.90;;;;;;4861685;29;20041;-89
2023/02/21 10:42:29;;;;;;;29.35;21.25;;;10.20;99.90;;;;;;4861890;29;20378;-91
2023/02/21 10:44:56;;;;;;;28.98;21.95;;;10.20;99.90;;;;;;4855260;29;20098;-90
2023/02/21 10:47:31;;;;;;;32.70;22.45;;;10.20;99.90;;;;;;4861876;29;20540;-89
2023/02/21 10:50:06;;;;;;;31.55;23.73;;;10.20;99.90;;;;;;4858969;29;20498;-90
2023/02/21 10:52:37;;;;;;;30.40;22.40;;;10.20;99.90;;;;;;4861385;29;20037;-89
2023/02/21 10:55:12;;;;;;;32.58;22.23;;;10.30;99.90;;;;;;4855757;29;20416;-88
2023/02/21 10:57:43;;;;;;;28.20;22.50;;;10.30;99.90;;;;;;4852504;29;20378;-90
2023/02/21 11:00:30;;;;;;;30.88;21.73;;;10.30;99.90;;;;;;4862674;29;20140;-89
2023/02/21 11:03:03;;;;;;;32.65;21.65;;;10.30;99.90;;;;;;4877228;29;20378;-90
2023/02/21 11:05:29;;;;;;;33.87;23.40;;;10.30;99.90;;;;;;4846383;29;20054;-92
2023/02/21 11:07:56;;;;;;;32.20;21.40;;;10.40;99.90;;;;;;4852667;29;20074;-92
2023/02/21 11:10:33;;;;;;;34.72;23.05;;;10.40;99.90;;;;;;4862717;29;20058;-94
2023/02/21 11:13:13;;;;;;;30.25;22.02;;;10.40;99.90;;;;;;4863173;29;20068;-92
2023/02/21 11:15:39;;;;;;;31.00;21.23;;;10.40;99.90;;;;;;4864058;29;20037;-94
2023/02/21 11:18:17;;;;;;;33.08;22.55;;;10.40;99.90;;;;;;4870922;29;20489;-92
2023/02/21 11:20:46;;;;;;;29.98;21.73;;;10.50;99.90;;;;;;4863807;29;20056;-96
2023/02/21 11:23:25;;;;;;;30.08;21.83;;;10.50;99.90;;;;;;4862611;29;20408;-91
2023/02/21 11:26:06;;;;;;;30.90;21.67;;;10.50;99.90;;;;;;4863734;29;20045;-91
2023/02/21 11:28:42;;;;;;;32.33;22.45;;;10.50;99.90;;;;;;4861263;29;20056;-92
2023/02/21 11:31:14;;;;;;;34.03;23.63;;;10.50;99.90;;;;;;4859202;29;20038;-92
2023/02/21 11:33:47;;;;;;;32.88;23.38;;;10.50;99.90;;;;;;4842545;29;20054;-90
2023/02/21 11:36:18;;;;;;;29.05;21.83;;;10.50;99.90;;;;;;4860199;29;20046;-92
2023/02/21 11:38:59;;;;;;;30.08;21.58;;;10.50;99.90;;;;;;4865256;29;20124;-91
2023/02/21 11:41:37;;;;;;;31.88;22.77;;;10.50;99.90;;;;;;4861134;29;20445;-86
2023/02/21 11:44:24;;;;;;;28.38;20.85;;;10.60;99.90;;;;;;4857254;29;20046;-89
2023/02/21 11:47:12;;;;;;;31.38;21.67;;;10.50;99.90;;;;;;4856333;29;20053;-88
2023/02/21 11:50:00;;;;;;;29.65;21.52;;;10.60;99.90;;;;;;4860907;29;20132;-88
2023/02/21 11:52:35;;;;;;;25.77;19.95;;;10.60;99.90;;;;;;4861828;29;20042;-88
2023/02/21 11:55:01;;;;;;;32.20;22.08;;;10.60;99.90;;;;;;4860117;29;20056;-89
2023/02/21 11:57:59;;;;;;;29.67;20.63;;;10.60;99.90;;;;;;4860378;29;20045;-89
2023/02/21 12:00:37;;;;;;;31.25;21.10;;;10.60;99.90;;;;;;4856707;29;20057;-89
2023/02/21 12:03:06;;;;;;;25.67;20.15;;;10.60;99.90;;;;;;4848875;29;20438;-89
2023/02/21 12:05:42;;;;;;;31.65;21.88;;;10.60;99.90;;;;;;4856967;29;20516;-89
2023/02/21 12:08:33;;;;;;;32.63;21.35;;;10.60;99.90;;;;;;4847548;29;20514;-89
2023/02/21 12:11:10;;;;;;;31.33;21.60;;;10.60;99.90;;;;;;4860239;29;20058;-89
2023/02/21 12:14:06;;;;;;;28.40;21.38;;;10.60;99.90;;;;;;4861827;29;20045;-89
2023/02/21 12:16:48;;;;;;;32.13;22.60;;;10.60;99.90;;;;;;4834860;29;20531;-89
2023/02/21 12:19:59;;;;;;;33.50;23.35;;;10.60;99.90;;;;;;4856337;29;20077;-89
2023/02/21 12:22:52;;;;;;;29.60;22.65;;;10.60;99.90;;;;;;4847695;29;20057;-89
2023/02/21 12:25:46;;;;;;;30.50;21.93;;;10.60;99.90;;;;;;4854748;29;20186;-89
2023/02/21 12:28:49;;;;;;;32.25;23.70;;;10.60;99.90;;;;;;4848520;29;20294;-89
2023/02/21 12:31:22;;;;;;;34.13;23.10;;;10.60;99.90;;;;;;4850052;29;20057;-89
2023/02/21 12:34:18;;;;;;;33.00;22.98;;;10.60;99.90;;;;;;4855235;29;20120;-89
2023/02/21 12:37:13;;;;;;;30.70;22.17;;;10.70;99.90;;;;;;4860601;29;20054;-89
2023/02/21 12:40:08;;;;;;;33.45;24.90;;;10.60;99.90;;;;;;4861028;29;20059;-88
2023/02/21 12:42:51;;;;;;;30.77;22.50;;;10.70;99.90;;;;;;4840653;29;20046;-89
2023/02/21 12:45:42;;;;;;;23.48;18.52;;;10.70;99.90;;;;;;4857050;29;20065;-89
2023/02/21 12:48:26;;;;;;;31.92;23.25;;;10.70;99.90;;;;;;4850292;29;20057;-89
2023/02/21 12:50:57;;;;;;;33.00;21.98;;;10.70;99.90;;;;;;4848673;29;20074;-89
2023/02/21 12:53:50;;;;;;;33.90;24.05;;;10.70;99.90;;;;;;4858888;29;20042;-89
2023/02/21 12:56:40;;;;;;;28.60;22.08;;;10.70;99.90;;;;;;4848969;29;20054;-90
2023/02/21 12:59:17;;;;;;;35.70;23.67;;;10.70;99.90;;;;;;4859750;29;20052;-89
2023/02/21 13:02:09;;;;;;;32.08;21.40;;;10.70;99.90;;;;;;4856698;29;20048;-88
2023/02/21 13:04:46;;;;;;;26.73;21.83;;;10.70;99.90;;;;;;4832352;29;20059;-88
2023/02/21 13:07:24;;;;;;;29.48;21.95;;;10.70;99.90;;;;;;4860043;29;20045;-89
2023/02/21 13:10:08;;;;;;;31.73;23.50;;;10.70;99.90;;;;;;4856213;29;20062;-88
2023/02/21 13:12:45;;;;;;;29.83;21.88;;;10.70;99.90;;;;;;4852949;29;20042;-88
2023/02/21 13:15:11;;;;;;;28.45;22.20;;;10.70;99.90;;;;;;4852608;29;20041;-89
2023/02/21 13:17:38;;;;;;;31.25;22.52;;;10.70;99.90;;;;;;4852099;29;20418;-88
2023/02/21 13:20:09;;;;;;;30.63;23.00;;;10.70;99.90;;;;;;4843847;29;20091;-88
2023/02/21 13:25:41;;;;;;;31.88;24.85;;;10.60;99.90;;;;;;4858861;29;20081;-89
2023/02/21 13:28:22;;;;;;;29.60;22.15;;;10.60;99.90;;;;;;4859766;29;20056;-89
2023/02/21 13:30:57;;;;;;;31.33;23.70;;;10.70;99.90;;;;;;4859773;29;20102;-93
2023/02/21 13:33:37;;;;;;;33.20;25.55;;;10.70;99.90;;;;;;4860888;29;20057;-93
2023/02/21 13:36:35;;;;;;;33.05;23.25;;;10.70;99.90;;;;;;4861450;29;20037;-91
2023/02/21 13:39:30;;;;;;;31.42;22.55;;;10.70;99.90;;;;;;4847666;29;20144;-93
2023/02/21 13:42:08;;;;;;;27.52;22.25;;;10.60;99.90;;;;;;4859774;29;20057;-93
2023/02/21 13:44:41;;;;;;;30.27;23.00;;;10.60;99.90;;;;;;4860091;29;20062;-92
2023/02/21 13:47:14;;;;;;;28.58;22.95;;;10.60;99.90;;;;;;4861321;29;20069;-92
2023/02/21 13:49:53;;;;;;;34.50;24.33;;;10.60;99.90;;;;;;4860589;29;20057;-92
2023/02/21 13:52:18;;;;;;;31.20;23.65;;;10.60;99.90;;;;;;4861511;29;20038;-93
2023/02/21 13:55:30;;;;;;;31.83;22.63;;;10.60;99.90;;;;;;4861194;29;20133;-92
2023/02/21 13:57:56;;;;;;;33.20;23.88;;;10.60;99.90;;;;;;4859780;29;20057;-93
2023/02/21 14:00:24;;;;;;;29.15;22.70;;;10.70;99.90;;;;;;4860948;29;20045;-93
2023/02/21 14:03:01;;;;;;;33.35;23.67;;;10.70;99.90;;;;;;4861338;29;20056;-93
2023/02/21 14:05:48;;;;;;;33.17;23.15;;;10.60;99.90;;;;;;4861596;29;20049;-93
2023/02/21 14:08:26;;;;;;;32.25;23.85;;;10.60;99.90;;;;;;4832807;29;20058;-93
2023/02/21 14:11:22;;;;;;;31.00;23.75;;;10.60;99.90;;;;;;4861676;29;20068;-91
2023/02/21 14:14:03;;;;;;;32.05;24.60;;;10.60;99.90;;;;;;4858570;29;20543;-92
2023/02/21 14:16:44;;;;;;;33.47;25.23;;;10.60;99.90;;;;;;4860118;29;20045;-93
2023/02/21 14:19:18;;;;;;;32.83;25.70;;;10.60;99.90;;;;;;4861308;29;20429;-94
2023/02/21 14:21:45;;;;;;;;;;;10.60;99.90;;;;;;4861843;29;20046;-95
2023/02/21 14:24:48;;;;;;;33.03;23.90;;;10.60;99.90;;;;;;4860486;29;19931;-89
2023/02/21 14:27:13;;;;;;;33.65;24.17;;;10.50;99.90;;;;;;4786063;29;20081;-91
2023/02/21 14:29:44;;;;;;;34.25;24.58;;;10.50;99.90;;;;;;4849706;29;20057;-90
2023/02/21 14:32:10;;;;;;;31.52;24.33;;;10.50;99.90;;;;;;4861958;29;20132;-89
2023/02/21 14:34:53;;;;;;;35.60;25.67;;;10.60;99.90;;;;;;4859783;29;20185;-89
2023/02/21 14:37:39;;;;;;;34.35;24.95;;;10.60;99.90;;;;;;4861401;29;20045;-90
2023/02/21 14:40:09;;;;;;;31.60;24.70;;;10.50;99.90;;;;;;4864226;29;20056;-91
2023/02/21 14:42:50;;;;;;;33.80;25.08;;;10.50;99.90;;;;;;4860051;29;20140;-90
2023/02/21 14:45:54;;;;;;;36.15;24.65;;;10.60;99.90;;;;;;4861043;29;20050;-90
2023/02/21 14:48:33;;;;;;;33.30;25.35;;;10.50;99.90;;;;;;4862046;29;20065;-90
2023/02/21 14:51:42;;;;;;;33.45;24.88;;;10.50;99.90;;;;;;4857961;29;20046;-89
2023/02/21 14:54:16;;;;;;;30.73;24.25;;;10.50;99.90;;;;;;4861704;29;20486;-89
2023/02/21 14:57:11;;;;;;;36.38;26.20;;;10.50;99.90;;;;;;4862427;29;20046;-89
2023/02/21 14:59:58;;;;;;;33.72;24.83;;;10.50;99.90;;;;;;4860111;29;20060;-90
2023/02/21 15:02:33;;;;;;;33.22;24.30;;;10.50;99.90;;;;;;4861090;29;20060;-89
2023/02/21 15:05:26;;;;;;;35.08;25.55;;;10.50;99.90;;;;;;4860363;29;20052;-89
2023/02/21 15:08:12;;;;;;;35.15;25.60;;;10.50;99.90;;;;;;4854500;29;20072;-93
2023/02/21 15:10:41;;;;;;;36.08;25.42;;;10.50;99.90;;;;;;4856392;29;20075;-92
2023/02/21 15:13:21;;;;;;;35.58;25.23;;;10.50;99.90;;;;;;4862494;29;20132;-91
2023/02/21 15:15:53;;;;;;;34.67;25.33;;;10.50;99.90;;;;;;4862946;29;20046;-92
2023/02/21 15:18:29;;;;;;;35.17;26.40;;;10.50;99.90;;;;;;4861608;29;20041;-94
2023/02/21 15:21:13;;;;;;;33.50;26.50;;;10.40;99.90;;;;;;4863628;29;20422;-93
2023/02/21 15:23:45;;;;;;;34.60;26.70;;;10.40;99.90;;;;;;4862984;29;20042;-92
2023/02/21 15:26:17;;;;;;;43.55;29.77;;;10.50;99.90;;;;;;4862020;29;20042;-89
2023/02/21 15:28:44;;;;;;;39.65;28.63;;;10.40;99.90;;;;;;4863844;29;20048;-92
2023/02/21 15:31:11;;;;;;;37.70;28.85;;;10.40;99.90;;;;;;4862254;29;20074;-93